Time;durP1;ratioP1;P1;durP2;ratioP2;P2;SDS_P1;SDS_P2;PMS_P1;PMS_P2;Temp;Humidity;BMP_temperature;BMP_pressure;BME280_temperature;BME280_humidity;BME280_pressure;Samples;Min_cycle;Max_cycle;Signal;HPM_P1;HPM_P2
2022/12/24 00:00:21;;;;;;;112.37;29.90;;;5.20;99.90;;;;;;5266751;28;20185;-52
2022/12/24 00:02:52;;;;;;;118.00;31.50;;;5.20;99.90;;;;;;5260036;28;20234;-52
2022/12/24 00:05:22;;;;;;;94.53;28.90;;;5.10;99.90;;;;;;5262999;28;20189;-52
2022/12/24 00:07:53;;;;;;;102.60;29.77;;;5.10;99.90;;;;;;5265473;28;20691;-52
2022/12/24 00:10:23;;;;;;;104.77;29.77;;;5.20;99.90;;;;;;5257363;28;20185;-53
2022/12/24 00:12:54;;;;;;;94.17;28.07;;;5.10;99.90;;;;;;5261758;28;20265;-53
2022/12/24 00:15:25;;;;;;;55.80;24.83;;;5.10;99.90;;;;;;5266004;28;20190;-53
2022/12/24 00:17:55;;;;;;;86.47;26.50;;;5.10;99.90;;;;;;5262951;28;20209;-53
2022/12/24 00:20:26;;;;;;;91.63;28.43;;;5.00;99.90;;;;;;5262415;28;20561;-51
2022/12/24 00:22:56;;;;;;;52.43;21.20;;;5.00;99.90;;;;;;5259610;28;20220;-53
2022/12/24 00:25:27;;;;;;;73.40;26.50;;;5.00;99.90;;;;;;5254969;28;20233;-52
2022/12/24 00:27:58;;;;;;;82.93;27.30;;;5.00;99.90;;;;;;5255524;28;20200;-52
2022/12/24 00:30:28;;;;;;;71.43;22.93;;;5.00;99.90;;;;;;5251260;28;20211;-51
2022/12/24 00:32:59;;;;;;;82.83;25.47;;;5.00;99.90;;;;;;5232889;28;20524;-52
2022/12/24 00:35:32;;;;;;;81.57;24.83;;;5.00;99.90;;;;;;5257309;28;20180;-52
2022/12/24 00:38:03;;;;;;;73.50;24.77;;;5.00;99.90;;;;;;5265967;28;20545;-52
2022/12/24 00:40:34;;;;;;;75.43;25.93;;;5.00;99.90;;;;;;5263727;28;20532;-53
2022/12/24 00:43:04;;;;;;;87.87;27.03;;;5.00;99.90;;;;;;5253639;28;20222;-52
2022/12/24 00:45:35;;;;;;;81.73;26.40;;;4.90;99.90;;;;;;5258991;28;20194;-52
2022/12/24 00:48:05;;;;;;;68.37;24.70;;;4.90;99.90;;;;;;5258895;28;20236;-53
2022/12/24 00:50:36;;;;;;;64.13;22.67;;;4.90;99.90;;;;;;5257344;28;20193;-53
2022/12/24 00:53:07;;;;;;;69.53;22.60;;;5.00;99.90;;;;;;5267924;28;20275;-53
2022/12/24 00:55:37;;;;;;;61.50;22.40;;;5.00;99.90;;;;;;5259305;28;20191;-51
2022/12/24 00:58:08;;;;;;;62.70;24.27;;;5.00;99.90;;;;;;5280287;28;20220;-52
2022/12/24 01:00:38;;;;;;;65.37;23.30;;;4.90;99.90;;;;;;5259412;28;20179;-53
2022/12/24 01:03:09;;;;;;;63.57;23.70;;;5.00;99.90;;;;;;5249271;28;20193;-54
2022/12/24 01:05:40;;;;;;;59.47;23.70;;;5.00;99.90;;;;;;5261676;28;20672;-53
2022/12/24 01:08:10;;;;;;;78.30;26.27;;;4.90;99.90;;;;;;5256531;28;20229;-53
2022/12/24 01:10:41;;;;;;;57.47;23.57;;;5.00;99.90;;;;;;5258712;28;20209;-52
2022/12/24 01:13:11;;;;;;;73.17;26.77;;;4.90;99.90;;;;;;5267583;28;20184;-52
2022/12/24 01:15:42;;;;;;;72.53;25.20;;;4.90;99.90;;;;;;5266084;28;20209;-52
2022/12/24 01:18:12;;;;;;;113.07;31.40;;;5.00;99.90;;;;;;5250838;28;20699;-53
2022/12/24 01:20:43;;;;;;;65.23;25.27;;;5.00;99.90;;;;;;5253563;28;20192;-52
2022/12/24 01:23:14;;;;;;;100.60;30.40;;;5.00;99.90;;;;;;5262586;28;20192;-52
2022/12/24 01:25:44;;;;;;;108.27;30.10;;;5.00;99.90;;;;;;5252121;28;20195;-52
2022/12/24 01:28:15;;;;;;;71.23;26.13;;;5.00;99.90;;;;;;5246368;28;20212;-52
2022/12/24 01:30:46;;;;;;;99.30;29.83;;;5.00;99.90;;;;;;5257617;28;20186;-54
2022/12/24 01:33:17;;;;;;;126.17;30.73;;;5.00;99.90;;;;;;5260450;28;20190;-53
2022/12/24 01:35:48;;;;;;;104.07;29.30;;;5.00;99.90;;;;;;5251557;28;20438;-53
2022/12/24 01:38:18;;;;;;;77.53;24.50;;;5.00;99.90;;;;;;5258002;28;20207;-51
2022/12/24 01:43:49;;;;;;;109.73;30.50;;;5.00;99.90;;;;;;5224637;28;20715;-51
2022/12/24 01:46:27;;;;;;;114.27;31.23;;;5.00;99.90;;;;;;5258391;28;20446;-51
2022/12/24 01:49:01;;;;;;;129.53;35.33;;;5.00;99.90;;;;;;5258834;28;20214;-53
2022/12/24 01:51:55;;;;;;;114.13;31.47;;;5.00;99.90;;;;;;5262701;28;20432;-53
2022/12/24 01:54:36;;;;;;;119.73;32.50;;;5.00;99.90;;;;;;5257277;28;20446;-51
2022/12/24 01:57:14;;;;;;;97.07;29.67;;;5.00;99.90;;;;;;5263733;28;20464;-51
2022/12/24 01:59:49;;;;;;;123.93;35.27;;;5.00;99.90;;;;;;5262389;28;20514;-51
2022/12/24 02:02:20;;;;;;;112.10;31.47;;;5.00;99.90;;;;;;5263535;28;20958;-51
2022/12/24 02:05:12;;;;;;;100.50;31.80;;;5.00;99.90;;;;;;5261246;28;20450;-52
2022/12/24 02:07:44;;;;;;;119.03;31.97;;;5.00;99.90;;;;;;5273487;28;20456;-51
2022/12/24 02:10:16;;;;;;;150.53;36.07;;;5.00;99.90;;;;;;5253455;28;20833;-51
2022/12/24 02:12:48;;;;;;;108.00;31.43;;;5.00;99.90;;;;;;5269342;28;20422;-52
2022/12/24 02:15:20;;;;;;;93.60;30.83;;;5.00;99.90;;;;;;5263628;28;20450;-52
2022/12/24 02:18:31;;;;;;;95.73;30.30;;;4.90;99.90;;;;;;5256715;28;20502;-52
2022/12/24 02:21:22;;;;;;;103.77;34.03;;;4.90;99.90;;;;;;5266369;28;20441;-53
2022/12/24 02:24:20;;;;;;;119.57;34.30;;;5.00;99.90;;;;;;5255412;28;20493;-53
2022/12/24 02:27:18;;;;;;;126.80;34.13;;;5.00;99.90;;;;;;5253593;28;20842;-52
2022/12/24 02:30:04;;;;;;;139.13;36.13;;;5.00;99.90;;;;;;5257564;28;20994;-50
2022/12/24 02:33:07;;;;;;;154.33;38.77;;;4.90;99.90;;;;;;5256432;28;20471;-52
2022/12/24 02:36:03;;;;;;;103.77;32.00;;;4.90;99.90;;;;;;5262756;28;20447;-53
2022/12/24 02:38:41;;;;;;;133.53;36.20;;;5.00;99.90;;;;;;5265101;28;20467;-53
2022/12/24 02:41:25;;;;;;;155.73;40.17;;;5.00;99.90;;;;;;5259329;28;20447;-52
2022/12/24 02:43:56;;;;;;;105.63;31.63;;;5.00;99.90;;;;;;5266102;28;20450;-53
2022/12/24 02:46:30;;;;;;;108.53;31.67;;;5.00;99.90;;;;;;5251647;28;20449;-52
2022/12/24 02:49:02;;;;;;;128.87;35.83;;;5.00;99.90;;;;;;5256819;28;20466;-53
2022/12/24 02:51:33;;;;;;;104.07;32.27;;;4.90;99.90;;;;;;5267024;28;20439;-54
2022/12/24 02:54:04;;;;;;;145.07;37.60;;;5.00;99.90;;;;;;5257846;28;20520;-52
2022/12/24 02:56:41;;;;;;;151.83;36.53;;;5.00;99.90;;;;;;5264354;28;20514;-51
2022/12/24 02:59:27;;;;;;;150.23;33.70;;;5.00;99.90;;;;;;5268372;28;20224;-50
2022/12/24 03:02:06;;;;;;;122.00;33.50;;;5.00;99.90;;;;;;5262984;28;20442;-52
2022/12/24 03:04:51;;;;;;;107.13;31.10;;;5.00;99.90;;;;;;5263588;28;20934;-51
2022/12/24 03:07:43;;;;;;;144.03;35.53;;;5.00;99.90;;;;;;5260447;28;20473;-52
2022/12/24 03:10:46;;;;;;;122.80;34.17;;;5.00;99.90;;;;;;5264839;28;20487;-53
2022/12/24 03:13:19;;;;;;;132.03;36.67;;;4.90;99.90;;;;;;5210733;28;20446;-52
2022/12/24 03:15:50;;;;;;;122.30;34.53;;;5.00;99.90;;;;;;5258950;28;20434;-52
2022/12/24 03:18:26;;;;;;;135.87;36.17;;;4.90;99.90;;;;;;5258300;28;20460;-53
2022/12/24 03:21:10;;;;;;;117.93;34.30;;;4.90;99.90;;;;;;5264075;28;20436;-51
2022/12/24 03:23:41;;;;;;;149.73;38.97;;;4.90;99.90;;;;;;5249345;28;20456;-52
2022/12/24 03:26:15;;;;;;;123.30;33.00;;;4.90;99.90;;;;;;5263624;28;20778;-53
2022/12/24 03:28:46;;;;;;;127.23;32.23;;;4.90;99.90;;;;;;5261830;28;20837;-53
2022/12/24 03:31:18;;;;;;;137.43;33.77;;;4.90;99.90;;;;;;5268380;28;20448;-52
2022/12/24 03:33:49;;;;;;;141.73;35.23;;;4.90;99.90;;;;;;5263155;28;20435;-51
2022/12/24 03:36:20;;;;;;;141.03;35.80;;;5.00;99.90;;;;;;5261237;28;20464;-52
2022/12/24 03:38:50;;;;;;;130.67;38.03;;;4.90;99.90;;;;;;5252552;28;20914;-52
2022/12/24 03:41:21;;;;;;;106.27;33.40;;;4.90;99.90;;;;;;5263804;28;20195;-53
2022/12/24 03:43:51;;;;;;;102.80;30.87;;;4.90;99.90;;;;;;5259885;28;20200;-53
2022/12/24 03:46:22;;;;;;;114.60;32.17;;;4.90;99.90;;;;;;5266025;28;20190;-51
2022/12/24 03:48:53;;;;;;;128.17;33.27;;;4.90;99.90;;;;;;5258259;28;20219;-52
2022/12/24 03:51:24;;;;;;;98.40;31.70;;;4.80;99.90;;;;;;5254007;28;20551;-52
2022/12/24 03:53:56;;;;;;;90.07;31.20;;;4.90;99.90;;;;;;5263082;28;20439;-51
2022/12/24 03:56:26;;;;;;;135.03;34.07;;;4.80;99.90;;;;;;5262205;28;20437;-53
2022/12/24 03:58:57;;;;;;;107.83;30.50;;;4.90;99.90;;;;;;5252488;28;20484;-51
2022/12/24 04:01:28;;;;;;;169.97;37.10;;;4.80;99.90;;;;;;5267989;28;20269;-50
2022/12/24 04:03:58;;;;;;;113.23;30.67;;;4.90;99.90;;;;;;5258811;28;20180;-51
2022/12/24 04:06:29;;;;;;;191.20;38.20;;;4.90;99.90;;;;;;5262685;28;20232;-53
2022/12/24 04:09:03;;;;;;;112.03;31.87;;;4.80;99.90;;;;;;5249619;28;20215;-51
2022/12/24 04:11:34;;;;;;;105.60;29.60;;;4.80;99.90;;;;;;5267275;28;20185;-52
2022/12/24 04:14:05;;;;;;;87.47;28.73;;;4.80;99.90;;;;;;5259690;28;20444;-53
2022/12/24 04:16:35;;;;;;;91.20;28.23;;;4.90;99.90;;;;;;5265470;28;20180;-53
2022/12/24 04:19:06;;;;;;;102.03;28.47;;;4.90;99.90;;;;;;5264579;28;20215;-52
2022/12/24 04:21:37;;;;;;;86.33;28.53;;;4.90;99.90;;;;;;5260347;28;20199;-52
2022/12/24 04:24:07;;;;;;;126.80;30.93;;;4.80;99.90;;;;;;5245855;28;20194;-52
2022/12/24 04:26:38;;;;;;;113.27;30.50;;;4.80;99.90;;;;;;5256020;28;20192;-52
2022/12/24 04:29:08;;;;;;;111.90;33.23;;;4.80;99.90;;;;;;5252292;28;20206;-52
2022/12/24 04:31:39;;;;;;;83.97;28.03;;;4.80;99.90;;;;;;5252526;28;20329;-52
2022/12/24 04:34:10;;;;;;;133.03;33.83;;;4.80;99.90;;;;;;5258008;28;20188;-51
2022/12/24 04:36:40;;;;;;;116.73;30.73;;;4.80;99.90;;;;;;5252631;28;20199;-52
2022/12/24 04:39:11;;;;;;;118.00;29.60;;;4.90;99.90;;;;;;5265560;28;20298;-52
2022/12/24 04:41:42;;;;;;;81.90;23.37;;;4.80;99.90;;;;;;5257540;28;20185;-53
2022/12/24 04:44:12;;;;;;;88.13;28.83;;;4.80;99.90;;;;;;5265310;28;20645;-52
2022/12/24 04:46:43;;;;;;;105.73;31.73;;;4.90;99.90;;;;;;5263628;28;20333;-53
2022/12/24 04:49:14;;;;;;;107.77;31.30;;;4.90;99.90;;;;;;5265741;28;20215;-52
2022/12/24 04:51:44;;;;;;;92.10;27.60;;;4.90;99.90;;;;;;5257930;28;20196;-51
2022/12/24 04:54:15;;;;;;;76.33;25.97;;;4.90;99.90;;;;;;5257667;28;20204;-53
2022/12/24 04:56:45;;;;;;;91.73;28.80;;;4.90;99.90;;;;;;5259260;28;20607;-52
2022/12/24 04:59:16;;;;;;;97.53;29.03;;;4.80;99.90;;;;;;5273212;28;20204;-52
2022/12/24 05:01:46;;;;;;;72.17;26.57;;;4.80;99.90;;;;;;5261465;28;20635;-52
2022/12/24 05:04:17;;;;;;;108.53;31.77;;;4.80;99.90;;;;;;5254529;28;20188;-53
2022/12/24 05:06:48;;;;;;;98.90;29.80;;;4.80;99.90;;;;;;5256104;28;20231;-56
2022/12/24 05:09:18;;;;;;;94.93;28.40;;;4.70;99.90;;;;;;5260114;28;20331;-51
2022/12/24 05:11:49;;;;;;;92.07;30.20;;;4.80;99.90;;;;;;5258083;28;20180;-53
2022/12/24 05:14:20;;;;;;;86.40;28.27;;;4.80;99.90;;;;;;5266576;28;20183;-51
2022/12/24 05:16:50;;;;;;;70.97;25.40;;;4.80;99.90;;;;;;5261874;28;20266;-52
2022/12/24 05:19:21;;;;;;;96.70;29.30;;;4.80;99.90;;;;;;5250822;28;20188;-52
2022/12/24 05:27:30;;;;;;;90.00;30.47;;;4.70;99.90;;;;;;5258737;28;20476;-53
2022/12/24 05:30:01;;;;;;;74.70;27.13;;;4.70;99.90;;;;;;5258972;28;20469;-53
2022/12/24 05:32:31;;;;;;;102.97;30.33;;;4.80;99.90;;;;;;5251122;28;20485;-54
2022/12/24 05:35:02;;;;;;;80.47;28.17;;;4.70;99.90;;;;;;5255143;28;20550;-52
2022/12/24 05:37:33;;;;;;;124.27;32.60;;;4.70;99.90;;;;;;5254649;28;20204;-52
2022/12/24 05:40:04;;;;;;;94.73;28.43;;;4.70;99.90;;;;;;5251478;28;20198;-53
2022/12/24 05:42:35;;;;;;;100.70;33.13;;;4.70;99.90;;;;;;5257294;28;20561;-53
2022/12/24 05:45:06;;;;;;;80.80;30.67;;;4.70;99.90;;;;;;5261277;28;20469;-52
2022/12/24 05:47:37;;;;;;;135.03;33.57;;;4.70;99.90;;;;;;5246213;28;20215;-54
2022/12/24 05:50:08;;;;;;;102.27;32.90;;;4.70;99.90;;;;;;5261243;28;20468;-51
2022/12/24 05:52:39;;;;;;;105.23;32.33;;;4.70;99.90;;;;;;5253196;28;20545;-52
2022/12/24 05:55:09;;;;;;;108.50;31.60;;;4.70;99.90;;;;;;5253471;28;20440;-53
2022/12/24 05:57:40;;;;;;;99.80;31.87;;;4.70;99.90;;;;;;5278521;28;20210;-53
2022/12/24 06:00:11;;;;;;;95.60;32.13;;;4.70;99.90;;;;;;5256810;28;20239;-52
2022/12/24 06:02:41;;;;;;;90.90;30.47;;;4.70;99.90;;;;;;5255005;28;20226;-52
2022/12/24 06:05:12;;;;;;;110.07;33.03;;;4.60;99.90;;;;;;5262961;28;20186;-52
2022/12/24 06:07:42;;;;;;;97.13;32.20;;;4.70;99.90;;;;;;5260509;28;20561;-52
2022/12/24 06:10:13;;;;;;;80.03;29.07;;;4.70;99.90;;;;;;5266252;28;20302;-53
2022/12/24 06:12:44;;;;;;;100.50;32.90;;;4.70;99.90;;;;;;5263192;28;20188;-53
2022/12/24 06:15:15;;;;;;;122.10;36.90;;;4.70;99.90;;;;;;5265336;28;20189;-53
2022/12/24 06:17:46;;;;;;;94.53;31.23;;;4.70;99.90;;;;;;5269745;28;20815;-53
2022/12/24 06:20:16;;;;;;;132.50;33.87;;;4.70;99.90;;;;;;5265050;28;20681;-54
2022/12/24 06:22:47;;;;;;;101.80;33.03;;;4.60;99.90;;;;;;5268001;28;20201;-52
2022/12/24 06:25:17;;;;;;;119.50;35.77;;;4.60;99.90;;;;;;5262579;28;20192;-52
2022/12/24 06:27:48;;;;;;;94.30;32.97;;;4.60;99.90;;;;;;5260378;28;20206;-53
2022/12/24 06:30:19;;;;;;;144.70;39.07;;;4.60;99.90;;;;;;5264167;28;20340;-53
2022/12/24 06:32:49;;;;;;;144.23;38.87;;;4.60;99.90;;;;;;5264693;28;20306;-53
2022/12/24 06:35:20;;;;;;;119.50;35.70;;;4.60;99.90;;;;;;5276199;28;20181;-54
2022/12/24 06:37:51;;;;;;;130.30;36.63;;;4.60;99.90;;;;;;5265879;28;20203;-51
2022/12/24 06:40:21;;;;;;;122.73;37.80;;;4.70;99.90;;;;;;5264300;28;20184;-53
2022/12/24 06:42:52;;;;;;;111.37;35.03;;;4.70;99.90;;;;;;5265437;28;20214;-50
2022/12/24 06:45:22;;;;;;;76.87;29.60;;;4.70;99.90;;;;;;5268996;28;20198;-53
2022/12/24 06:47:53;;;;;;;110.57;34.17;;;4.70;99.90;;;;;;5263664;28;20206;-53
2022/12/24 06:50:24;;;;;;;117.60;34.27;;;4.70;99.90;;;;;;5265219;28;20222;-53
2022/12/24 06:52:55;;;;;;;112.67;35.70;;;4.70;99.90;;;;;;5269459;28;20670;-52
2022/12/24 06:55:25;;;;;;;154.97;39.67;;;4.70;99.90;;;;;;5267372;28;20194;-53
2022/12/24 06:57:56;;;;;;;98.13;31.00;;;4.70;99.90;;;;;;5264483;28;20211;-51
2022/12/24 07:00:27;;;;;;;91.00;28.30;;;4.70;99.90;;;;;;5265057;28;21912;-50
2022/12/24 07:02:57;;;;;;;100.67;33.13;;;4.70;99.90;;;;;;5258800;28;20194;-52
2022/12/24 07:05:28;;;;;;;72.70;27.00;;;4.70;99.90;;;;;;5261446;28;20259;-54
2022/12/24 07:07:59;;;;;;;120.77;34.23;;;4.70;99.90;;;;;;5266013;28;20202;-51
2022/12/24 07:10:29;;;;;;;117.20;32.80;;;4.70;99.90;;;;;;5268052;28;20465;-54
2022/12/24 07:13:00;;;;;;;144.53;36.90;;;4.70;99.90;;;;;;5263029;28;20198;-53
2022/12/24 07:15:31;;;;;;;110.40;33.50;;;4.70;99.90;;;;;;5266303;28;20180;-51
2022/12/24 07:18:01;;;;;;;98.43;29.23;;;4.60;99.90;;;;;;5281798;28;20628;-52
2022/12/24 07:20:32;;;;;;;92.77;27.47;;;4.60;99.90;;;;;;5262595;28;20202;-52
2022/12/24 07:23:03;;;;;;;101.50;31.03;;;4.70;99.90;;;;;;5263250;28;20263;-51
2022/12/24 07:25:33;;;;;;;107.60;31.00;;;4.60;99.90;;;;;;5284487;28;20654;-53
2022/12/24 07:28:04;;;;;;;87.70;28.10;;;4.60;99.90;;;;;;5265107;28;20214;-52
2022/12/24 07:30:34;;;;;;;82.07;29.87;;;4.60;99.90;;;;;;5262498;28;20667;-49
2022/12/24 07:33:05;;;;;;;91.10;31.40;;;4.70;99.90;;;;;;5269619;28;20197;-53
2022/12/24 07:35:36;;;;;;;94.50;29.60;;;4.60;99.90;;;;;;5267870;28;20190;-53
2022/12/24 07:38:06;;;;;;;96.50;29.10;;;4.60;99.90;;;;;;5266225;28;20215;-52
2022/12/24 07:40:37;;;;;;;109.27;29.20;;;4.70;99.90;;;;;;5267592;28;20536;-54
2022/12/24 07:43:07;;;;;;;84.07;27.80;;;4.70;99.90;;;;;;5265137;28;20175;-50
2022/12/24 07:45:39;;;;;;;76.07;26.20;;;4.70;99.90;;;;;;5265370;28;20191;-52
2022/12/24 07:48:09;;;;;;;84.67;27.10;;;4.70;99.90;;;;;;5263368;28;20240;-53
2022/12/24 07:50:41;;;;;;;88.40;26.30;;;4.60;99.90;;;;;;5266019;28;20869;-53
2022/12/24 07:53:11;;;;;;;89.20;26.63;;;4.70;99.90;;;;;;5280640;28;20190;-54
2022/12/24 07:55:43;;;;;;;103.37;30.83;;;4.70;99.90;;;;;;5264343;28;20925;-54
2022/12/24 07:58:14;;;;;;;100.37;29.90;;;4.70;99.90;;;;;;5264659;28;20286;-50
2022/12/24 08:00:45;;;;;;;91.80;28.03;;;4.70;99.90;;;;;;5265754;28;20535;-52
2022/12/24 08:03:19;;;;;;;93.13;29.80;;;4.70;99.90;;;;;;5267695;28;20202;-53
2022/12/24 08:05:51;;;;;;;89.70;29.47;;;4.60;99.90;;;;;;5267277;28;20186;-52
2022/12/24 08:08:22;;;;;;;146.63;32.07;;;4.70;99.90;;;;;;5270560;28;20451;-52
2022/12/24 08:10:52;;;;;;;86.87;25.83;;;4.70;99.90;;;;;;5271134;28;20516;-53
2022/12/24 08:13:23;;;;;;;105.40;29.20;;;4.70;99.90;;;;;;5267331;28;20215;-51
2022/12/24 08:15:54;;;;;;;104.00;32.87;;;4.70;99.90;;;;;;5265230;28;20190;-53
2022/12/24 08:18:25;;;;;;;119.03;31.73;;;4.70;99.90;;;;;;5274604;28;20203;-53
2022/12/24 08:20:55;;;;;;;102.80;30.17;;;4.70;99.90;;;;;;5267156;28;20171;-52
2022/12/24 08:23:26;;;;;;;93.20;27.10;;;4.70;99.90;;;;;;5268362;28;20773;-52
2022/12/24 08:25:57;;;;;;;98.03;29.50;;;4.70;99.90;;;;;;5263412;28;20175;-53
2022/12/24 08:28:28;;;;;;;94.67;30.40;;;4.70;99.90;;;;;;5260540;28;20263;-52
2022/12/24 08:30:59;;;;;;;100.30;29.87;;;4.70;99.90;;;;;;5247060;28;20246;-54
2022/12/24 08:33:31;;;;;;;90.07;29.27;;;4.70;99.90;;;;;;5258041;28;20946;-51
2022/12/24 08:36:02;;;;;;;107.53;30.03;;;4.80;99.90;;;;;;5260145;28;20429;-52
2022/12/24 08:38:32;;;;;;;84.03;27.60;;;4.70;99.90;;;;;;5262956;28;20457;-52
2022/12/24 08:41:03;;;;;;;91.33;28.17;;;4.70;99.90;;;;;;5261778;28;21215;-52
2022/12/24 08:43:34;;;;;;;119.53;30.03;;;4.70;99.90;;;;;;5260359;28;20222;-53
2022/12/24 08:46:05;;;;;;;100.83;30.43;;;4.80;99.90;;;;;;5264458;28;20198;-53
2022/12/24 08:48:36;;;;;;;188.60;38.93;;;4.80;99.90;;;;;;5255470;28;20207;-52
2022/12/24 08:51:10;;;;;;;100.50;29.83;;;4.70;99.90;;;;;;5279060;27;20214;-53
2022/12/24 08:53:41;;;;;;;145.53;35.60;;;4.70;99.90;;;;;;5261486;28;20227;-53
2022/12/24 08:56:12;;;;;;;105.47;28.70;;;4.90;99.90;;;;;;5261228;28;20951;-53
2022/12/24 08:58:43;;;;;;;100.00;29.73;;;4.80;99.90;;;;;;5260335;28;20277;-52
2022/12/24 09:01:16;;;;;;;79.07;26.77;;;4.80;99.90;;;;;;5260069;28;20197;-53
2022/12/24 09:03:47;;;;;;;97.83;31.17;;;4.90;99.90;;;;;;5259459;28;20192;-53
2022/12/24 09:06:18;;;;;;;83.90;27.30;;;4.80;99.90;;;;;;5258751;28;20503;-52
2022/12/24 09:08:48;;;;;;;145.97;35.83;;;4.90;99.90;;;;;;5262336;28;20603;-52
2022/12/24 09:11:19;;;;;;;94.83;28.47;;;4.90;99.90;;;;;;5261400;28;20199;-51
2022/12/24 09:13:50;;;;;;;70.33;26.43;;;4.90;99.90;;;;;;5263087;28;20193;-52
2022/12/24 09:16:20;;;;;;;75.77;26.20;;;4.90;99.90;;;;;;5254246;28;20550;-52
2022/12/24 09:18:51;;;;;;;99.00;30.17;;;4.90;99.90;;;;;;5253510;28;20302;-53
2022/12/24 09:21:22;;;;;;;135.77;30.87;;;4.90;99.90;;;;;;5259752;28;20192;-52
2022/12/24 09:23:52;;;;;;;90.80;29.10;;;4.90;99.90;;;;;;5275261;28;20222;-51
2022/12/24 09:26:26;;;;;;;134.10;31.33;;;4.90;99.90;;;;;;5263898;28;20194;-53
2022/12/24 09:28:59;;;;;;;116.63;27.93;;;4.90;99.90;;;;;;5262523;28;20214;-53
2022/12/24 09:31:30;;;;;;;85.30;26.63;;;5.00;99.90;;;;;;5262299;28;22000;-52
2022/12/24 09:34:01;;;;;;;84.40;26.73;;;5.00;99.90;;;;;;5265403;28;20490;-52
2022/12/24 09:36:32;;;;;;;65.13;23.33;;;5.00;99.90;;;;;;5262121;28;20636;-52
2022/12/24 09:39:03;;;;;;;92.47;29.20;;;5.10;99.90;;;;;;5262509;28;20469;-54
2022/12/24 09:41:45;;;;;;;85.93;24.90;;;5.10;99.90;;;;;;5265006;28;20488;-54
2022/12/24 09:44:52;;;;;;;71.87;21.40;;;5.10;99.90;;;;;;5258091;28;20721;-53
2022/12/24 09:47:31;;;;;;;93.37;25.80;;;5.20;99.90;;;;;;5232280;28;20472;-54
2022/12/24 09:50:03;;;;;;;94.60;27.60;;;5.20;99.90;;;;;;5274325;28;20823;-53
2022/12/24 09:52:42;;;;;;;95.53;28.03;;;5.10;99.90;;;;;;5248116;28;20997;-54
2022/12/24 09:55:42;;;;;;;90.43;29.30;;;5.10;99.90;;;;;;5256478;28;20565;-52
2022/12/24 09:58:27;;;;;;;85.33;31.37;;;5.10;99.90;;;;;;5260218;28;21103;-52
2022/12/24 10:00:58;;;;;;;115.03;32.37;;;5.10;99.90;;;;;;5256107;28;20449;-51
2022/12/24 10:03:28;;;;;;;95.33;27.27;;;5.10;99.90;;;;;;5257092;28;20446;-54
2022/12/24 10:06:13;;;;;;;115.73;37.13;;;5.20;99.90;;;;;;5251491;28;20215;-52
2022/12/24 10:09:17;;;;;;;91.40;31.97;;;5.20;99.90;;;;;;5246923;28;20212;-52
2022/12/24 10:12:05;;;;;;;124.47;35.13;;;5.30;99.90;;;;;;5251396;28;20532;-53
2022/12/24 10:15:03;;;;;;;145.27;37.13;;;5.30;99.90;;;;;;5251636;28;20460;-53
2022/12/24 10:17:49;;;;;;;111.97;34.90;;;5.20;99.90;;;;;;5267024;28;20471;-54
2022/12/24 10:20:25;;;;;;;109.13;36.20;;;5.30;99.90;;;;;;5264367;28;20467;-51
2022/12/24 10:23:02;;;;;;;135.43;36.80;;;5.30;99.90;;;;;;5252407;28;20438;-56
2022/12/24 10:26:07;;;;;;;107.53;35.80;;;5.30;99.90;;;;;;5255353;28;20441;-53
2022/12/24 10:28:42;;;;;;;138.27;36.60;;;5.40;99.90;;;;;;5240214;28;20473;-54
2022/12/24 10:31:14;;;;;;;57.30;23.23;;;5.50;99.90;;;;;;5254224;28;20555;-54
2022/12/24 10:33:48;;;;;;;94.17;28.73;;;5.60;99.90;;;;;;5250829;28;20561;-51
2022/12/24 10:36:24;;;;;;;69.10;26.70;;;5.80;99.90;;;;;;5254843;28;20544;-54
2022/12/24 10:38:55;;;;;;;76.90;29.37;;;5.90;99.90;;;;;;5258937;28;20465;-52
2022/12/24 10:41:28;;;;;;;45.53;22.67;;;6.00;99.90;;;;;;5255107;28;20958;-55
2022/12/24 10:43:59;;;;;;;73.30;25.40;;;6.00;99.90;;;;;;5253397;28;20446;-51
2022/12/24 10:46:38;;;;;;;56.03;22.37;;;6.10;99.90;;;;;;5273569;28;20434;-54
2022/12/24 10:49:15;;;;;;;88.13;29.60;;;6.20;99.90;;;;;;5256187;28;20521;-55
2022/12/24 10:51:50;;;;;;;85.43;30.27;;;6.30;99.90;;;;;;5255264;28;20519;-54
2022/12/24 10:54:23;;;;;;;57.30;20.63;;;6.30;99.90;;;;;;5255116;28;20467;-53
2022/12/24 10:56:59;;;;;;;54.57;23.50;;;6.30;99.90;;;;;;5257660;28;20427;-52
2022/12/24 10:59:41;;;;;;;48.57;22.20;;;6.40;99.90;;;;;;5257667;28;20529;-55
2022/12/24 11:02:32;;;;;;;43.83;21.73;;;6.50;99.90;;;;;;5265580;28;20481;-54
2022/12/24 11:05:25;;;;;;;63.53;24.57;;;6.60;99.90;;;;;;5261642;28;20511;-54
2022/12/24 11:08:01;;;;;;;98.10;33.50;;;6.60;99.90;;;;;;5254414;28;20460;-52
2022/12/24 11:10:35;;;;;;;65.07;24.80;;;6.70;99.90;;;;;;5258873;28;20463;-54
2022/12/24 11:13:44;;;;;;;47.30;23.30;;;6.70;99.90;;;;;;5258564;28;20931;-54
2022/12/24 11:16:30;;;;;;;47.73;22.23;;;6.70;99.90;;;;;;5258501;28;20443;-55
2022/12/24 11:19:14;;;;;;;48.67;20.13;;;6.80;99.90;;;;;;5262151;28;20459;-53
2022/12/24 11:21:45;;;;;;;58.23;24.73;;;6.80;99.90;;;;;;5244013;28;20939;-54
2022/12/24 11:24:29;;;;;;;40.30;18.20;;;6.70;99.90;;;;;;5262099;28;20504;-53
2022/12/24 11:27:28;;;;;;;33.70;17.33;;;6.70;99.90;;;;;;5256051;28;20651;-52
2022/12/24 11:30:14;;;;;;;41.40;17.87;;;6.70;99.90;;;;;;5224471;28;20975;-53
2022/12/24 11:33:09;;;;;;;67.17;27.60;;;6.70;99.90;;;;;;5257489;28;20508;-53
2022/12/24 11:35:45;;;;;;;72.70;25.13;;;6.70;99.90;;;;;;5255573;28;20447;-53
2022/12/24 11:38:25;;;;;;;38.43;17.40;;;6.70;99.90;;;;;;5257841;28;20459;-57
2022/12/24 11:40:59;;;;;;;44.13;18.63;;;6.70;99.90;;;;;;5263150;28;20435;-54
2022/12/24 11:43:45;;;;;;;35.67;16.43;;;6.70;99.90;;;;;;5261902;28;20529;-51
2022/12/24 11:46:20;;;;;;;38.63;18.13;;;6.70;99.90;;;;;;5260073;28;20945;-54
2022/12/24 11:49:15;;;;;;;40.87;21.27;;;6.80;99.90;;;;;;5260701;28;20990;-55
2022/12/24 11:52:10;;;;;;;67.60;23.77;;;6.80;99.90;;;;;;5258830;28;20438;-53
2022/12/24 11:54:58;;;;;;;70.80;22.87;;;6.80;99.90;;;;;;5254214;28;21042;-54
2022/12/24 11:57:46;;;;;;;55.63;21.87;;;6.80;99.90;;;;;;5259355;28;20483;-53
2022/12/24 12:00:17;;;;;;;33.00;16.17;;;6.80;99.90;;;;;;5258990;28;20498;-53
2022/12/24 12:02:50;;;;;;;34.60;15.67;;;6.90;99.90;;;;;;5261467;28;20471;-54
2022/12/24 12:05:26;;;;;;;43.73;17.23;;;7.00;99.90;;;;;;5277436;27;20436;-55
2022/12/24 12:08:16;;;;;;;21.03;14.47;;;7.00;99.90;;;;;;5253221;28;20452;-53
2022/12/24 12:10:50;;;;;;;21.40;14.30;;;6.90;99.90;;;;;;5262078;28;20475;-54
2022/12/24 12:13:32;;;;;;;38.87;17.20;;;7.10;99.90;;;;;;5266793;28;20444;-54
2022/12/24 12:16:59;;;;;;;35.27;16.77;;;7.00;99.90;;;;;;5260871;28;20516;-54
2022/12/24 12:19:24;;;;;;;53.30;21.03;;;7.10;99.90;;;;;;5267439;28;20443;-55
2022/12/24 12:21:55;;;;;;;51.80;21.40;;;7.00;99.90;;;;;;5260270;28;20435;-53
2022/12/24 12:24:32;;;;;;;50.63;20.87;;;6.90;99.90;;;;;;5266601;28;20943;-54
2022/12/24 12:27:12;;;;;;;38.57;15.83;;;6.90;99.90;;;;;;5261426;28;20235;-53
2022/12/24 12:29:51;;;;;;;28.63;14.70;;;7.00;99.90;;;;;;5253853;28;20448;-54
2022/12/24 12:32:30;;;;;;;46.53;18.30;;;6.90;99.90;;;;;;5255768;28;20996;-53
2022/12/24 12:35:14;;;;;;;21.93;13.10;;;6.90;99.90;;;;;;5258802;28;20426;-53
2022/12/24 12:37:53;;;;;;;29.43;14.07;;;6.90;99.90;;;;;;5263507;28;20516;-53
2022/12/24 12:40:48;;;;;;;38.77;16.70;;;7.00;99.90;;;;;;5269819;28;20490;-53
2022/12/24 12:43:49;;;;;;;28.20;15.30;;;7.10;99.90;;;;;;5279884;27;20955;-52
2022/12/24 12:46:49;;;;;;;40.27;17.17;;;7.20;99.90;;;;;;5261470;28;21013;-53
2022/12/24 12:49:38;;;;;;;36.43;16.10;;;7.20;99.90;;;;;;5265812;28;20467;-53
2022/12/24 12:52:19;;;;;;;45.53;17.53;;;7.20;99.90;;;;;;5263825;28;20430;-54
2022/12/24 12:55:01;;;;;;;30.23;15.00;;;7.20;99.90;;;;;;5257225;28;20433;-54
2022/12/24 12:57:36;;;;;;;21.90;12.97;;;7.20;99.90;;;;;;5261728;28;21045;-53
2022/12/24 13:00:10;;;;;;;28.83;12.83;;;7.30;99.90;;;;;;5267234;28;20437;-54
2022/12/24 13:02:41;;;;;;;25.40;14.30;;;7.30;99.90;;;;;;5268891;28;20815;-54
2022/12/24 13:05:24;;;;;;;33.23;15.20;;;7.30;99.90;;;;;;5266856;28;20442;-54
2022/12/24 13:08:06;;;;;;;22.93;12.80;;;7.40;99.90;;;;;;5274780;28;20228;-54
2022/12/24 13:10:37;;;;;;;22.10;12.00;;;7.40;99.90;;;;;;5253980;28;20535;-53
2022/12/24 13:13:26;;;;;;;29.93;14.40;;;7.50;99.90;;;;;;5261912;28;20437;-54
2022/12/24 13:16:15;;;;;;;24.43;12.07;;;7.40;99.90;;;;;;5258879;28;20529;-53
2022/12/24 13:19:14;;;;;;;24.57;12.90;;;7.50;99.90;;;;;;5254936;28;20459;-54
2022/12/24 13:21:47;;;;;;;33.20;14.00;;;7.50;99.90;;;;;;5276539;27;20446;-54